createdAt,value
2018-05-17T00:00:25.838Z,98.8
2018-05-17T00:01:25.062Z,98.9
2018-05-17T00:02:24.006Z,99
2018-05-17T00:03:23.357Z,98.9
2018-05-17T00:04:22.477Z,98.9
2018-05-17T00:05:21.886Z,98.8
2018-05-17T00:06:21.225Z,98.9
2018-05-17T00:06:51.776Z,98.9
2018-05-17T00:07:22.426Z,98.8
2018-05-17T00:07:52.651Z,98.8
2018-05-17T00:08:23.192Z,98.7
2018-05-17T00:08:53.736Z,98.7
2018-05-17T00:09:24.379Z,98.8
2018-05-17T00:09:54.809Z,98.8
2018-05-17T00:11:17.402Z,98.9
2018-05-17T00:12:16.735Z,99
2018-05-17T00:13:15.671Z,98.9
2018-05-17T00:14:14.997Z,98.9
2018-05-17T00:15:14.457Z,99
2018-05-17T00:16:13.685Z,99
2018-05-17T00:17:12.920Z,99
2018-05-17T00:17:43.604Z,99
2018-05-17T00:18:14.136Z,99
2018-05-17T00:18:44.295Z,99
2018-05-17T00:19:14.945Z,98.8
2018-05-17T00:19:45.481Z,98.8
2018-05-17T00:20:15.911Z,98.8
2018-05-17T00:20:46.157Z,98.8
2018-05-17T00:22:08.752Z,98.9
2018-05-17T00:23:08.084Z,98.9
2018-05-17T00:24:07.439Z,98.9
2018-05-17T00:25:06.742Z,98.9
2018-05-17T00:26:05.964Z,99
2018-05-17T00:27:04.794Z,99.1
2018-05-17T00:29:03.305Z,98.9
2018-05-17T00:31:01.927Z,98.7
2018-05-17T00:31:32.359Z,98.7
2018-05-17T00:32:03.008Z,98.7
2018-05-17T00:33:00.446Z,98.7
2018-05-17T00:33:59.788Z,98.7
2018-05-17T00:34:59.027Z,98.8
2018-05-17T00:35:58.473Z,98.8
2018-05-17T00:36:57.416Z,98.9
2018-05-17T00:37:28.062Z,98.9
2018-05-17T00:37:58.501Z,98.9
2018-05-17T00:38:28.642Z,98.9
2018-05-17T00:38:59.349Z,99
2018-05-17T00:39:55.271Z,98.9
2018-05-17T00:40:54.534Z,99
2018-05-17T00:41:53.871Z,99
2018-05-17T00:42:52.703Z,99
2018-05-17T00:43:52.046Z,99
2018-05-17T00:44:51.284Z,99
2018-05-17T00:45:50.615Z,99
2018-05-17T00:46:49.960Z,98.9
2018-05-17T00:48:48.189Z,99
2018-05-17T00:49:18.841Z,99
2018-05-17T00:49:49.371Z,98.9
2018-05-17T00:50:20.025Z,98.9
2018-05-17T00:51:46.113Z,99
2018-05-17T00:52:44.944Z,98.9
2018-05-17T00:53:44.387Z,99
2018-05-17T00:54:43.614Z,99.1
2018-05-17T00:55:43.069Z,99
2018-05-17T00:56:41.920Z,99
2018-05-17T00:57:41.547Z,99
2018-05-17T00:58:40.443Z,99
2018-05-17T00:59:10.700Z,99
2018-05-17T00:59:41.345Z,99
2018-05-17T01:00:11.887Z,99
2018-05-17T01:02:37.561Z,99.1
2018-05-17T01:03:36.895Z,99.1
2018-05-17T01:04:36.014Z,99.2
2018-05-17T01:05:35.237Z,99.2
2018-05-17T01:06:34.465Z,99.1
2018-05-17T01:07:33.804Z,99
2018-05-17T01:08:33.034Z,99.1
2018-05-17T01:09:32.257Z,99
2018-05-17T01:11:30.264Z,99.1
2018-05-17T01:12:29.599Z,99.1
2018-05-17T01:13:28.947Z,99.1
2018-05-17T01:14:28.385Z,99.1
2018-05-17T01:15:27.716Z,99.1
2018-05-17T01:16:26.659Z,99.1
2018-05-17T01:17:26.012Z,99.2
2018-05-17T01:18:24.971Z,99.2
2018-05-17T01:19:24.317Z,99.2
2018-05-17T01:21:22.745Z,99.2
2018-05-17T01:22:21.861Z,99.3
2018-05-17T01:23:21.490Z,99.3
2018-05-17T01:24:20.713Z,99.3
2018-05-17T01:25:19.657Z,99.3
2018-05-17T01:25:50.294Z,99.3
2018-05-17T01:26:20.437Z,99.3
2018-05-17T01:27:18.264Z,99.3
2018-05-17T01:28:17.395Z,99.3
2018-05-17T01:29:16.702Z,99.4
2018-05-17T01:30:16.052Z,99.2
2018-05-17T01:31:15.425Z,99.2
2018-05-17T01:32:14.255Z,99.2
2018-05-17T01:34:13.101Z,99.3
2018-05-17T01:35:12.329Z,99.2
2018-05-17T01:36:11.170Z,99.3
2018-05-17T01:37:10.515Z,99.3
2018-05-17T01:38:09.844Z,99.3
2018-05-17T01:39:09.068Z,99.3
2018-05-17T01:40:08.401Z,99.3
2018-05-17T01:41:07.629Z,99.4
2018-05-17T01:42:06.959Z,99.4
2018-05-17T01:43:05.808Z,99.5
2018-05-17T01:44:05.157Z,99.5
2018-05-17T01:45:04.489Z,99.5
2018-05-17T01:45:35.031Z,99.5
2018-05-17T01:46:05.574Z,99.6
2018-05-17T01:46:35.804Z,99.6
2018-05-17T01:47:06.433Z,99.6
2018-05-17T01:47:36.767Z,99.6
2018-05-17T01:49:01.163Z,99.6
2018-05-17T01:50:00.283Z,99.5
2018-05-17T01:50:59.623Z,99.5
2018-05-17T01:51:59.054Z,99.6
2018-05-17T01:52:58.494Z,99.6
2018-05-17T01:53:57.215Z,99.6
2018-05-17T01:54:56.651Z,99.6
2018-05-17T01:55:26.900Z,99.6
2018-05-17T01:55:57.543Z,99.6
2018-05-17T01:56:28.082Z,99.6
2018-05-17T01:56:58.220Z,99.6
2018-05-17T01:57:28.986Z,99.6
2018-05-17T01:57:59.238Z,99.6
2018-05-17T01:58:29.783Z,99.6
2018-05-17T01:59:52.773Z,99.7
2018-05-17T02:00:52.002Z,99.7
2018-05-17T02:02:50.331Z,99.7
2018-05-17T02:03:49.449Z,99.7
2018-05-17T02:04:48.785Z,99.7
2018-05-17T02:16:31.199Z,99.7
2018-05-17T02:17:39.196Z,99.9
2018-05-17T02:18:38.024Z,99.9
2018-05-17T02:19:37.464Z,99.9
2018-05-17T02:20:36.795Z,99.9
2018-05-17T02:21:35.754Z,99.9
2018-05-17T02:22:35.262Z,99.8
2018-05-17T02:23:34.589Z,99.9
2018-05-17T02:24:33.599Z,99.9
2018-05-17T02:25:32.928Z,99.9
2018-05-17T02:26:03.459Z,99.9
2018-05-17T02:26:33.897Z,99.9
2018-05-17T02:27:04.542Z,99.9
2018-05-17T02:28:30.443Z,99.9
2018-05-17T02:29:29.769Z,99.9
2018-05-17T02:30:29.116Z,99.9
2018-05-17T02:31:27.949Z,99.9
2018-05-17T02:32:27.690Z,100
2018-05-17T02:33:26.633Z,100
2018-05-17T02:34:25.971Z,99.9
2018-05-17T02:35:24.986Z,99.9
2018-05-17T02:36:24.209Z,100
2018-05-17T02:36:54.876Z,100
2018-05-17T02:37:25.142Z,100
2018-05-17T02:37:55.806Z,100
2018-05-17T02:38:26.461Z,100
2018-05-17T02:38:57.121Z,100
2018-05-17T02:39:27.666Z,100
2018-05-17T02:39:58.423Z,100
2018-05-17T02:42:19.818Z,100
2018-05-17T02:43:19.056Z,100
2018-05-17T02:44:18.284Z,100.1
2018-05-17T02:45:17.541Z,100.1
2018-05-17T02:46:16.492Z,100
2018-05-17T02:47:15.831Z,100
2018-05-17T02:48:14.955Z,100
2018-05-17T02:48:45.609Z,100
2018-05-17T02:49:16.337Z,100.1
2018-05-17T02:49:46.447Z,100.1
2018-05-17T02:50:17.241Z,100.1
2018-05-17T02:50:47.903Z,100.1
2018-05-17T02:51:18.553Z,100.1
2018-05-17T02:52:12.253Z,100.1
2018-05-17T02:53:11.102Z,100.1
2018-05-17T02:54:10.232Z,100.1
2018-05-17T02:55:09.580Z,100.1
2018-05-17T02:56:08.929Z,100.1
2018-05-17T02:57:08.164Z,100.2
2018-05-17T02:58:07.509Z,100.2
2018-05-17T02:59:06.648Z,100.2
2018-05-17T03:00:05.984Z,100.1
2018-05-17T03:01:05.111Z,100.1
2018-05-17T03:02:04.451Z,100.2
2018-05-17T03:03:03.901Z,100.2
2018-05-17T03:04:02.745Z,100.1
2018-05-17T03:05:01.868Z,100.1
2018-05-17T03:06:01.042Z,100.2
2018-05-17T03:07:00.485Z,100.2
2018-05-17T03:07:59.718Z,100.2
2018-05-17T03:08:30.257Z,100.2
2018-05-17T03:09:58.392Z,100.2
2018-05-17T03:10:57.525Z,100.1
2018-05-17T03:11:56.978Z,100.1
2018-05-17T03:12:55.939Z,100.1
2018-05-17T03:13:55.177Z,100
2018-05-17T03:14:54.404Z,100
2018-05-17T03:15:53.742Z,100
2018-05-17T03:16:53.075Z,100
2018-05-17T03:17:52.415Z,99.8
2018-05-17T03:18:51.297Z,99.8
2018-05-17T03:19:21.960Z,99.8
2018-05-17T03:19:52.281Z,99.7
2018-05-17T03:20:49.711Z,99.7
2018-05-17T03:21:48.937Z,99.5
2018-05-17T03:22:48.273Z,99.4
2018-05-17T03:23:47.390Z,99.4
2018-05-17T03:24:46.833Z,99.4
2018-05-17T03:25:46.174Z,99.3
2018-05-17T03:26:45.144Z,99.3
2018-05-17T03:27:44.481Z,99.3
2018-05-17T03:28:43.920Z,99.1
2018-05-17T03:29:42.757Z,99.2
2018-05-17T03:30:41.994Z,98.9
2018-05-17T03:31:41.223Z,98.7
2018-05-17T03:32:40.579Z,98.7
2018-05-17T03:33:39.905Z,98.7
2018-05-17T03:34:39.245Z,98.7
2018-05-17T03:35:09.783Z,98.7
2018-05-17T03:35:40.321Z,98.7
2018-05-17T03:36:10.967Z,98.7
2018-05-17T03:37:37.075Z,98.4
2018-05-17T03:38:35.914Z,98
2018-05-17T03:39:35.244Z,97.8
2018-05-17T03:41:33.966Z,97.7
2018-05-17T03:42:32.912Z,97.7
2018-05-17T03:43:32.373Z,97.7
2018-05-17T03:44:31.495Z,97.7
2018-05-17T03:45:02.161Z,97.7
2018-05-17T03:45:32.710Z,97.3
2018-05-17T03:46:03.369Z,97.3
2018-05-17T03:47:29.168Z,97.4
2018-05-17T03:48:28.397Z,97.3
2018-05-17T03:49:27.625Z,97.2
2018-05-17T03:50:26.959Z,97
2018-05-17T03:51:26.188Z,97.1
2018-05-17T03:52:25.412Z,97.4
2018-05-17T03:53:24.644Z,97.4
2018-05-17T03:54:23.978Z,97.4
2018-05-17T03:55:22.942Z,97.5
2018-05-17T03:56:22.062Z,97.5
2018-05-17T03:57:21.508Z,97.2
2018-05-17T03:58:20.953Z,96.6
2018-05-17T03:59:19.791Z,96.8
2018-05-17T04:00:19.236Z,96.8
2018-05-17T04:01:18.723Z,96.8
2018-05-17T04:02:17.614Z,96.9
2018-05-17T04:03:16.943Z,97
2018-05-17T04:04:16.058Z,97
2018-05-17T04:05:15.287Z,96.7
2018-05-17T04:06:14.515Z,96.6
2018-05-17T04:07:13.833Z,96.4
2018-05-17T04:08:12.949Z,96.6
2018-05-17T04:09:12.293Z,96.4
2018-05-17T04:10:11.619Z,96.4
2018-05-17T04:11:10.949Z,96.7
2018-05-17T04:12:09.898Z,96.4
2018-05-17T04:13:08.909Z,96.8
2018-05-17T04:14:08.355Z,96.7
2018-05-17T04:14:38.601Z,96.7
2018-05-17T04:15:09.305Z,96.6
2018-05-17T04:15:39.519Z,96.6
2018-05-17T04:16:10.052Z,96.6
2018-05-17T04:16:40.305Z,96.6
2018-05-17T04:17:10.838Z,96.5
2018-05-17T04:17:41.486Z,96.5
2018-05-17T04:19:04.584Z,96.6
2018-05-17T04:20:04.041Z,96.7
2018-05-17T04:21:02.883Z,96.3
2018-05-17T04:22:02.123Z,96.2
2018-05-17T04:23:01.256Z,96.2
2018-05-17T04:24:00.604Z,96.4
2018-05-17T04:24:59.617Z,96.4
2018-05-17T04:25:30.057Z,96.4
2018-05-17T04:26:00.318Z,96.3
2018-05-17T04:26:30.572Z,96.3
2018-05-17T04:27:00.715Z,96.3
2018-05-17T04:27:31.365Z,96.3
2018-05-17T04:28:01.615Z,96.3
2018-05-17T04:28:31.967Z,96.3
2018-05-17T04:29:56.141Z,96.5
2018-05-17T04:30:54.975Z,96.5
2018-05-17T04:31:54.693Z,96.4
2018-05-17T04:32:53.923Z,96.2
2018-05-17T04:33:52.751Z,96.6
2018-05-17T04:34:52.103Z,96.5
2018-05-17T04:35:51.546Z,96.2
2018-05-17T04:36:50.655Z,96.3
2018-05-17T04:38:49.162Z,96.3
2018-05-17T04:39:48.503Z,96.2
2018-05-17T04:40:47.338Z,95.5
2018-05-17T04:41:46.560Z,95.9
2018-05-17T04:42:45.788Z,96
2018-05-17T04:43:45.030Z,95.7
2018-05-17T04:44:44.478Z,95.8
2018-05-17T04:45:43.712Z,96
2018-05-17T04:46:42.657Z,96.1
2018-05-17T04:47:42.099Z,96.2
2018-05-17T04:48:41.440Z,95.7
2018-05-17T04:49:40.778Z,96
2018-05-17T04:50:39.606Z,95.9
2018-05-17T04:51:38.828Z,95.5
2018-05-17T04:52:37.951Z,95.8
2018-05-17T04:53:37.565Z,96.1
2018-05-17T04:54:36.677Z,95.6
2018-05-17T04:55:36.029Z,95.4
2018-05-17T04:56:35.355Z,95.5
2018-05-17T04:57:06.020Z,95.5
2018-05-17T04:57:36.672Z,95.7
2018-05-17T04:58:07.218Z,95.7
2018-05-17T04:59:32.744Z,95.7
2018-05-17T05:00:32.080Z,95.5
2018-05-17T05:01:31.316Z,95.6
2018-05-17T05:03:29.814Z,95.5
2018-05-17T05:05:28.090Z,95.6
2018-05-17T05:06:27.311Z,95.1
2018-05-17T05:07:26.532Z,95.7
2018-05-17T05:07:57.077Z,95.7
2018-05-17T05:09:24.781Z,95.6
2018-05-17T05:10:24.140Z,95.6
2018-05-17T05:12:22.355Z,95.1
2018-05-17T05:13:21.871Z,95
2018-05-17T05:14:21.094Z,95.2
2018-05-17T05:15:20.323Z,95.1
2018-05-17T05:17:18.647Z,94.7
2018-05-17T05:18:17.881Z,94.8
2018-05-17T05:20:16.493Z,94.6
2018-05-17T05:21:15.414Z,94.4
2018-05-17T05:22:14.739Z,94.4
2018-05-17T05:23:14.184Z,94.5
2018-05-17T05:23:44.921Z,94.5
2018-05-17T05:25:12.575Z,94.4
2018-05-17T05:26:11.562Z,94.5
2018-05-17T05:27:11.006Z,94.5
2018-05-17T05:30:08.617Z,94
2018-05-17T05:31:07.792Z,94.3
2018-05-17T05:32:06.621Z,94.4
2018-05-17T05:33:06.250Z,94.4
2018-05-17T05:33:36.789Z,94.4
2018-05-17T05:35:04.308Z,94.3
2018-05-17T05:36:03.648Z,94.5
2018-05-17T05:37:02.760Z,94.8
2018-05-17T05:38:01.991Z,94.7
2018-05-17T05:39:01.324Z,94.1
2018-05-17T05:40:00.434Z,93.9
2018-05-17T05:40:59.811Z,94.1
2018-05-17T05:41:59.149Z,94.1
2018-05-17T05:42:57.994Z,94.1
2018-05-17T05:43:57.326Z,93.6
2018-05-17T05:44:56.448Z,93.8
2018-05-17T05:45:55.510Z,94.1
2018-05-17T05:46:54.950Z,94
2018-05-17T05:48:53.680Z,93.4
2018-05-17T05:49:52.536Z,93.4
2018-05-17T05:50:51.952Z,93.3
2018-05-17T05:51:50.886Z,93.7
2018-05-17T05:52:50.233Z,93.6
2018-05-17T05:53:20.874Z,93.6
2018-05-17T05:54:48.685Z,93.7
2018-05-17T05:55:47.908Z,93.5
2018-05-17T05:56:47.239Z,93.4
2018-05-17T05:58:45.466Z,93.4
2018-05-17T06:01:43.357Z,93.2
2018-05-17T06:02:42.183Z,93.3
2018-05-17T06:03:12.838Z,93.3
2018-05-17T06:03:43.093Z,93.2
2018-05-17T06:04:13.743Z,93.2
2018-05-17T06:04:43.965Z,93.4
2018-05-17T06:05:14.617Z,93.4
2018-05-17T06:05:44.871Z,93.5
2018-05-17T06:06:15.528Z,93.5
2018-05-17T06:13:33.441Z,93.2
2018-05-17T06:15:32.180Z,93.1
2018-05-17T06:16:02.323Z,93.1
2018-05-17T06:16:32.848Z,93.1
2018-05-17T06:17:03.108Z,93.1
2018-05-17T06:19:29.004Z,92.8
2018-05-17T06:21:27.340Z,92.8
2018-05-17T06:22:26.566Z,92.8
2018-05-17T06:25:24.008Z,92.2
2018-05-17T06:26:23.341Z,92.1
2018-05-17T06:28:21.665Z,92.2
2018-05-17T06:29:21.083Z,92
2018-05-17T06:30:20.029Z,91.6
2018-05-17T06:34:16.861Z,91.8
2018-05-17T06:34:47.393Z,91.8
2018-05-17T06:36:15.409Z,92
2018-05-17T06:38:14.013Z,91.7
2018-05-17T06:41:11.628Z,91.7
2018-05-17T06:43:09.839Z,92.1
2018-05-17T06:45:08.464Z,91.7
2018-05-17T06:45:38.722Z,91.7
2018-05-17T06:46:08.962Z,91.7
2018-05-17T06:46:39.215Z,91.7
2018-05-17T06:48:05.719Z,91.5
2018-05-17T06:51:03.338Z,91.7
2018-05-17T06:53:01.840Z,92
2018-05-17T06:54:00.957Z,90.5
2018-05-17T06:55:00.304Z,90.6
2018-05-17T06:58:57.084Z,90.8
2018-05-17T06:59:56.529Z,90.2
2018-05-17T07:00:55.885Z,90.4
2018-05-17T07:01:54.951Z,90.2
2018-05-17T07:02:53.893Z,90.5
2018-05-17T07:04:52.518Z,90.7
2018-05-17T07:05:51.627Z,90.7
2018-05-17T07:06:51.060Z,90.7
2018-05-17T07:07:49.993Z,90.9
2018-05-17T07:08:49.220Z,90.4
2018-05-17T07:09:48.669Z,90.6
2018-05-17T07:10:47.892Z,90.5
2018-05-17T07:11:46.610Z,90.4
2018-05-17T07:12:46.353Z,90.3
2018-05-17T07:13:45.366Z,90
2018-05-17T07:15:43.811Z,90
2018-05-17T07:16:43.013Z,90.3
2018-05-17T07:18:42.336Z,89.8
2018-05-17T07:19:40.437Z,89.9
2018-05-17T07:21:39.155Z,90.4
2018-05-17T07:22:38.009Z,90.5
2018-05-17T07:23:37.456Z,90.3
2018-05-17T07:24:36.692Z,90.4
2018-05-17T07:25:35.813Z,90.7
2018-05-17T07:26:35.271Z,90.4
2018-05-17T07:30:31.773Z,89.8
2018-05-17T07:32:30.493Z,90.3
2018-05-17T07:34:28.716Z,90.1
2018-05-17T07:35:27.944Z,89.8
2018-05-17T07:37:26.366Z,89.8
2018-05-17T07:38:25.704Z,89.8
2018-05-17T07:39:24.638Z,90.1
2018-05-17T07:40:24.260Z,89.9
2018-05-17T07:41:23.097Z,90.1
2018-05-17T07:41:53.745Z,90.1
2018-05-17T07:42:24.393Z,89.3
2018-05-17T07:42:54.824Z,89.3
2018-05-17T07:45:20.221Z,89.6
2018-05-17T07:46:19.451Z,89.4
2018-05-17T07:47:18.955Z,89.6
2018-05-17T07:48:17.849Z,89.7
2018-05-17T07:49:16.963Z,89.4
2018-05-17T07:51:15.071Z,89.4
2018-05-17T07:51:45.824Z,89.4
2018-05-17T07:52:16.477Z,89.4
2018-05-17T07:52:46.804Z,89.4
2018-05-17T07:53:17.444Z,89.2
2018-05-17T07:53:47.974Z,89.2
2018-05-17T07:55:12.467Z,89
2018-05-17T07:56:11.689Z,88.9
2018-05-17T07:58:10.011Z,89.1
2018-05-17T08:00:08.337Z,88.5
2018-05-17T08:01:07.462Z,88.4
2018-05-17T08:02:06.802Z,88.3
2018-05-17T08:03:05.938Z,88.4
2018-05-17T08:05:04.046Z,88.3
2018-05-17T08:05:34.585Z,88.3
2018-05-17T08:09:00.968Z,88.5
2018-05-17T08:10:00.589Z,88.4
2018-05-17T08:10:59.623Z,88.3
2018-05-17T08:11:30.098Z,88.3
2018-05-17T08:12:58.140Z,88.3
2018-05-17T08:13:57.258Z,88.6
2018-05-17T08:14:56.600Z,88.5
2018-05-17T08:15:55.934Z,88.4
2018-05-17T08:16:54.764Z,88.5
2018-05-17T08:18:53.489Z,87.5
2018-05-17T08:19:52.313Z,87.8
2018-05-17T08:20:51.639Z,88.2
2018-05-17T08:21:22.190Z,88.2
2018-05-17T08:21:52.516Z,88
2018-05-17T08:22:22.775Z,88
2018-05-17T08:22:53.426Z,88
2018-05-17T08:23:24.066Z,88
2018-05-17T08:23:54.498Z,88.1
2018-05-17T08:24:25.238Z,88.1
2018-05-17T08:24:55.463Z,88.2
2018-05-17T08:25:26.007Z,88.2
2018-05-17T08:26:46.992Z,87.6
2018-05-17T08:27:46.003Z,87.7
2018-05-17T08:28:45.237Z,87.2
2018-05-17T08:30:43.983Z,87.3
2018-05-17T08:31:43.315Z,87.3
2018-05-17T08:32:13.983Z,87.3
2018-05-17T08:32:44.237Z,87.1
2018-05-17T08:33:14.501Z,87.1
2018-05-17T08:33:45.046Z,86.9
2018-05-17T08:34:15.694Z,86.9
2018-05-17T08:34:45.851Z,87.1
2018-05-17T08:35:16.503Z,87.1
2018-05-17T08:36:39.056Z,86.4
2018-05-17T08:39:36.727Z,86.7
2018-05-17T08:40:35.953Z,86.8
2018-05-17T08:41:35.289Z,86.8
2018-05-17T08:42:34.632Z,86.8
2018-05-17T08:44:32.777Z,86.1
2018-05-17T08:45:32.172Z,86.5
2018-05-17T08:46:02.424Z,86.5
2018-05-17T08:48:29.637Z,85.9
2018-05-17T08:49:28.982Z,86
2018-05-17T08:50:28.254Z,85.8
2018-05-17T08:51:27.192Z,85.9
2018-05-17T08:52:26.418Z,86.3
2018-05-17T08:53:25.856Z,86.2
2018-05-17T08:55:24.263Z,85.8
2018-05-17T08:56:23.084Z,86.1
2018-05-17T08:57:22.817Z,86.1
2018-05-17T08:58:21.648Z,86.3
2018-05-17T08:59:21.104Z,86.3
2018-05-17T09:02:18.676Z,85.3
2018-05-17T09:04:17.290Z,85.7
2018-05-17T09:04:47.946Z,85.7
2018-05-17T09:06:15.699Z,85.6
2018-05-17T09:07:14.862Z,85.7
2018-05-17T09:08:13.588Z,85.9
2018-05-17T09:09:12.814Z,85.8
2018-05-17T09:12:10.816Z,85.4
2018-05-17T09:13:10.153Z,85.2
2018-05-17T09:14:08.988Z,85.2
2018-05-17T09:15:08.224Z,85
2018-05-17T09:15:38.871Z,85
2018-05-17T09:17:06.675Z,84.9
2018-05-17T09:19:05.307Z,84.7
2018-05-17T09:20:04.242Z,85
2018-05-17T09:20:34.840Z,85
2018-05-17T09:21:05.455Z,84.5
2018-05-17T09:22:02.774Z,84.4
2018-05-17T09:23:01.897Z,84.4
2018-05-17T09:24:01.027Z,84.6
2018-05-17T09:25:00.147Z,84.9
2018-05-17T09:25:59.375Z,84.6
2018-05-17T09:26:58.996Z,84.5
2018-05-17T09:27:58.116Z,84.4
2018-05-17T09:29:56.339Z,83.8
2018-05-17T09:30:26.775Z,83.8
2018-05-17T09:31:54.694Z,83.2
2018-05-17T09:32:54.135Z,83.6
2018-05-17T09:34:52.374Z,83.7
2018-05-17T09:35:51.497Z,82.8
2018-05-17T09:36:50.831Z,82.6
2018-05-17T09:37:49.943Z,82.7
2018-05-17T09:38:49.060Z,82.5
2018-05-17T09:39:48.409Z,82.4
2018-05-17T09:42:46.019Z,82.2
2018-05-17T09:43:45.241Z,82.6
2018-05-17T09:44:44.467Z,82.6
2018-05-17T09:45:43.811Z,82.4
2018-05-17T09:46:43.170Z,82
2018-05-17T09:47:42.174Z,81.1
2018-05-17T09:48:41.351Z,82.2
2018-05-17T09:49:40.686Z,81.4
2018-05-17T09:50:40.021Z,81.6
2018-05-17T09:51:39.242Z,81.4
2018-05-17T09:52:38.079Z,81.1
2018-05-17T09:53:37.317Z,81.3
2018-05-17T09:54:36.761Z,81.5
2018-05-17T09:55:36.106Z,81.3
2018-05-17T09:56:35.217Z,81.6
2018-05-17T09:59:32.809Z,80.9
2018-05-17T10:00:03.561Z,80.9
2018-05-17T10:01:31.071Z,81.3
2018-05-17T10:02:30.405Z,81.7
2018-05-17T10:03:29.528Z,81.1
2018-05-17T10:04:28.973Z,80.5
2018-05-17T10:05:28.204Z,80.1
2018-05-17T10:06:27.046Z,80.2
2018-05-17T10:08:25.773Z,79.3
2018-05-17T10:09:24.623Z,79.5
2018-05-17T10:09:55.153Z,79.5
2018-05-17T10:10:25.822Z,79.5
2018-05-17T10:10:56.251Z,79.5
2018-05-17T10:11:26.791Z,79.1
2018-05-17T10:11:57.451Z,79.1
2018-05-17T10:12:27.986Z,79.6
2018-05-17T10:12:58.313Z,79.6
2018-05-17T10:13:28.350Z,79.3
2018-05-17T10:13:59.005Z,79.3
2018-05-17T10:15:20.368Z,79.1
2018-05-17T10:16:19.601Z,78.9
2018-05-17T10:17:18.825Z,79
2018-05-17T10:18:17.770Z,78.7
2018-05-17T10:19:17.185Z,78.3
2018-05-17T10:20:16.528Z,78.5
2018-05-17T10:21:15.471Z,78.9
2018-05-17T10:22:14.588Z,78.7
2018-05-17T10:22:45.120Z,78.7
2018-05-17T10:24:13.033Z,78.1
2018-05-17T10:24:43.576Z,78.1
2018-05-17T10:26:11.715Z,78.3
2018-05-17T10:27:11.062Z,78.4
2018-05-17T10:28:10.177Z,77.8
2018-05-17T10:30:08.292Z,77
2018-05-17T10:31:07.909Z,76.7
2018-05-17T10:32:06.725Z,77.2
2018-05-17T10:34:05.243Z,77
2018-05-17T10:35:04.974Z,76.6
2018-05-17T10:37:03.358Z,75.9
2018-05-17T10:38:02.585Z,75.7
2018-05-17T10:39:01.538Z,76.4
2018-05-17T10:40:00.946Z,75.6
2018-05-17T10:41:00.094Z,75.8
2018-05-17T10:41:59.431Z,75.3
2018-05-17T10:42:30.183Z,75.3
2018-05-17T10:43:57.704Z,75.2
2018-05-17T10:44:57.041Z,75.4
2018-05-17T10:45:56.383Z,74.9
2018-05-17T10:47:54.996Z,75.1
2018-05-17T10:48:53.907Z,75.4
2018-05-17T10:50:52.613Z,75.1
2018-05-17T10:52:50.941Z,75.6
2018-05-17T10:53:21.079Z,75.6
2018-05-17T10:53:51.836Z,76.2
2018-05-17T10:54:22.451Z,76.2
2018-05-17T10:54:52.714Z,75.1
2018-05-17T10:55:48.529Z,75.4
2018-05-17T10:57:47.039Z,76.1
2018-05-17T10:58:46.358Z,75.8
2018-05-17T11:00:45.110Z,76.1
2018-05-17T11:02:43.426Z,75.7
2018-05-17T11:03:42.765Z,76.2
2018-05-17T11:04:13.312Z,76.2
2018-05-17T11:04:43.975Z,75.9
2018-05-17T11:05:40.808Z,75.7
2018-05-17T11:07:39.526Z,75.6
2018-05-17T11:08:38.937Z,75.7
2018-05-17T11:09:09.593Z,75.7
2018-05-17T11:09:39.851Z,75.1
2018-05-17T11:10:37.187Z,74.2
2018-05-17T11:11:36.523Z,73.8
2018-05-17T11:12:35.862Z,74.1
2018-05-17T11:13:35.217Z,74
2018-05-17T11:14:33.944Z,72.4
2018-05-17T11:15:33.184Z,72.5
2018-05-17T11:16:32.808Z,72.6
2018-05-17T11:18:31.418Z,72.3
2018-05-17T11:19:02.070Z,72.3
2018-05-17T11:21:28.982Z,72.3
2018-05-17T11:22:28.091Z,73.2
2018-05-17T11:23:27.310Z,72.4
2018-05-17T11:24:26.657Z,73
2018-05-17T11:26:25.266Z,72.9
2018-05-17T11:27:24.716Z,72.7
2018-05-17T11:31:21.717Z,71.4
2018-05-17T11:32:20.550Z,71.6
2018-05-17T11:33:20.179Z,71.6
2018-05-17T11:34:19.504Z,71.6
2018-05-17T11:37:17.211Z,71.3
2018-05-17T11:38:16.437Z,71.9
2018-05-17T11:39:15.448Z,70.9
2018-05-17T11:41:14.360Z,71.5
2018-05-17T11:42:13.479Z,71.9
2018-05-17T11:43:12.311Z,71.6
2018-05-17T11:44:11.876Z,71.6
2018-05-17T11:45:11.398Z,71.9
2018-05-17T11:47:09.510Z,72
2018-05-17T11:48:08.962Z,71.9
2018-05-17T11:50:07.572Z,72.4
2018-05-17T11:50:38.114Z,72.4
2018-05-17T11:51:08.665Z,72
2018-05-17T11:51:39.211Z,72
2018-05-17T11:53:05.123Z,72
2018-05-17T11:57:02.431Z,70.6
2018-05-17T11:59:00.764Z,69.4
2018-05-17T11:59:31.089Z,69.4
2018-05-17T12:00:01.629Z,69.9
2018-05-17T12:00:32.061Z,69.9
2018-05-17T12:01:02.610Z,70.1
2018-05-17T12:01:33.293Z,70.1
2018-05-17T12:02:03.461Z,69.6
2018-05-17T12:02:34.355Z,69.6
2018-05-17T12:03:57.216Z,70
2018-05-17T12:04:56.344Z,69.2
2018-05-17T12:05:55.685Z,69.6
2018-05-17T12:06:55.019Z,69.7
2018-05-17T12:07:54.410Z,69.3
2018-05-17T12:08:53.632Z,69.1
2018-05-17T12:09:53.071Z,70.1
2018-05-17T12:10:52.291Z,69.7
2018-05-17T12:12:50.910Z,71
2018-05-17T12:13:21.558Z,71
2018-05-17T12:14:48.972Z,70.2
2018-05-17T12:15:48.483Z,70.1
2018-05-17T12:16:47.997Z,70
2018-05-17T12:17:46.841Z,69.6
2018-05-17T12:18:46.183Z,68.9
2018-05-17T12:19:45.947Z,70.1
2018-05-17T12:20:16.088Z,70.1
2018-05-17T12:20:46.848Z,70.3
2018-05-17T12:21:43.955Z,70.3
2018-05-17T12:23:42.786Z,70.4
2018-05-17T12:25:41.497Z,70.4
2018-05-17T12:26:40.835Z,70.4
2018-05-17T12:27:40.181Z,70.4
2018-05-17T12:28:39.397Z,70.8
2018-05-17T12:32:36.504Z,69.5
2018-05-17T12:33:07.170Z,69.5
2018-05-17T12:35:33.972Z,67.4
2018-05-17T12:36:33.307Z,68.2
2018-05-17T12:37:32.646Z,68.1
2018-05-17T12:38:31.991Z,68.5
2018-05-17T12:39:31.220Z,67.7
2018-05-17T12:41:30.048Z,67.9
2018-05-17T12:42:00.182Z,67.9
2018-05-17T12:42:30.720Z,68.5
2018-05-17T12:43:00.970Z,68.5
2018-05-17T12:45:27.160Z,68.7
2018-05-17T12:46:25.994Z,68.8
2018-05-17T12:48:24.718Z,69.3
2018-05-17T12:49:24.449Z,69.3
2018-05-17T12:52:21.970Z,69
2018-05-17T12:55:19.688Z,68.6
2018-05-17T12:56:19.029Z,68.8
2018-05-17T12:57:18.745Z,68.2
2018-05-17T12:58:17.580Z,68.6
2018-05-17T12:59:16.912Z,68.7
2018-05-17T13:00:16.355Z,68.8
2018-05-17T13:01:15.476Z,68.3
2018-05-17T13:02:14.811Z,68.5
2018-05-17T13:05:12.804Z,68
2018-05-17T13:06:11.938Z,67.8
2018-05-17T13:07:11.173Z,67.8
2018-05-17T13:08:10.500Z,68.6
2018-05-17T13:08:41.153Z,68.6
2018-05-17T13:09:11.690Z,68.8
2018-05-17T13:10:09.088Z,68.5
2018-05-17T13:11:08.429Z,69.1
2018-05-17T13:14:06.541Z,69.4
2018-05-17T13:15:05.775Z,69.1
2018-05-17T13:16:05.000Z,69.3
2018-05-17T13:17:04.234Z,69.5
2018-05-17T13:18:03.576Z,68.6
2018-05-17T13:19:02.921Z,68.6
2018-05-17T13:20:02.253Z,68.8
2018-05-17T13:21:01.596Z,68.6
2018-05-17T13:22:59.832Z,68.5
2018-05-17T13:23:59.172Z,68.5
2018-05-17T13:24:58.508Z,68.3
2018-05-17T13:26:57.240Z,68.4
2018-05-17T13:27:56.487Z,68.5
2018-05-17T13:28:55.656Z,68.3
2018-05-17T13:29:26.212Z,68.3
2018-05-17T13:29:56.875Z,68.7
2018-05-17T13:30:27.431Z,68.7
2018-05-17T13:31:53.725Z,68.4
2018-05-17T13:32:53.163Z,68.2
2018-05-17T13:33:52.389Z,67.6
2018-05-17T13:34:51.616Z,67.9
2018-05-17T13:35:50.950Z,67.5
2018-05-17T13:37:49.162Z,67.6
2018-05-17T13:38:48.518Z,67.3
2018-05-17T13:39:19.065Z,67.3
2018-05-17T13:39:49.622Z,67
2018-05-17T13:40:20.156Z,67
2018-05-17T13:40:50.591Z,66.7
2018-05-17T13:41:20.834Z,66.7
2018-05-17T13:42:45.516Z,66.2
2018-05-17T13:43:45.374Z,65
2018-05-17T13:44:44.430Z,66.2
2018-05-17T13:46:42.936Z,63.8
2018-05-17T13:47:42.391Z,62
2018-05-17T13:51:39.551Z,62.4
2018-05-17T13:52:09.811Z,62.4
2018-05-17T13:52:39.950Z,62.6
2018-05-17T13:53:10.493Z,62.6
2018-05-17T13:54:37.788Z,62.8
2018-05-17T13:57:35.399Z,64.3
2018-05-17T13:59:34.410Z,62.3
2018-05-17T14:02:32.270Z,61.5
2018-05-17T14:05:30.287Z,62.8
2018-05-17T14:06:29.620Z,63.5
2018-05-17T14:07:28.956Z,63.3
2018-05-17T14:08:28.399Z,64
2018-05-17T14:19:21.001Z,63.7
2018-05-17T14:26:16.048Z,61.4
2018-05-17T14:27:15.781Z,62.3
2018-05-17T14:32:12.269Z,61.9
2018-05-17T14:33:11.607Z,61.9
2018-05-17T14:33:42.146Z,61.9
2018-05-17T14:37:08.945Z,62.4
2018-05-17T14:38:08.289Z,62.3
2018-05-17T14:39:07.632Z,62.6
2018-05-17T14:41:06.357Z,62.3
2018-05-17T14:43:05.136Z,61.2
2018-05-17T14:44:04.536Z,62.2
2018-05-17T14:45:04.135Z,61.8
2018-05-17T14:46:03.460Z,61.5
2018-05-17T14:47:02.531Z,60.7
2018-05-17T14:48:01.869Z,61.8
2018-05-17T14:49:01.486Z,61.7
2018-05-17T14:50:00.492Z,61.3
2018-05-17T14:51:59.213Z,62.3
2018-05-17T14:52:58.626Z,60.6
2018-05-17T14:53:28.780Z,60.6
2018-05-17T14:54:57.185Z,60.4
2018-05-17T14:55:57.064Z,60.7
2018-05-17T14:56:55.914Z,60.3
2018-05-17T14:57:55.146Z,61.3
2018-05-17T14:59:54.262Z,60.5
2018-05-17T15:00:53.599Z,60.9
2018-05-17T15:01:52.732Z,60.9